sensor_id;sensor_type;location;lat;lon;timestamp;P1;durP1;ratioP1;P2;durP2;ratioP2
2896;SDS011;1458;49.728;9.228;2022-12-29T00:00:20;0.40;;;0.40;;
2896;SDS011;1458;49.728;9.228;2022-12-29T00:02:49;0.30;;;0.30;;
2896;SDS011;1458;49.728;9.228;2022-12-29T00:05:16;0.40;;;0.40;;
2896;SDS011;1458;49.728;9.228;2022-12-29T00:07:44;0.40;;;0.40;;
2896;SDS011;1458;49.728;9.228;2022-12-29T00:10:11;0.40;;;0.40;;
2896;SDS011;1458;49.728;9.228;2022-12-29T00:12:38;0.50;;;0.50;;
2896;SDS011;1458;49.728;9.228;2022-12-29T00:15:23;0.70;;;0.70;;
2896;SDS011;1458;49.728;9.228;2022-12-29T00:18:04;0.50;;;0.50;;
2896;SDS011;1458;49.728;9.228;2022-12-29T00:20:32;0.67;;;0.67;;
2896;SDS011;1458;49.728;9.228;2022-12-29T00:23:18;0.60;;;0.60;;
2896;SDS011;1458;49.728;9.228;2022-12-29T00:26:05;0.60;;;0.60;;
2896;SDS011;1458;49.728;9.228;2022-12-29T00:28:56;0.70;;;0.70;;
2896;SDS011;1458;49.728;9.228;2022-12-29T00:31:41;0.87;;;0.87;;
2896;SDS011;1458;49.728;9.228;2022-12-29T00:34:27;0.60;;;0.60;;
2896;SDS011;1458;49.728;9.228;2022-12-29T00:37:12;0.70;;;0.70;;
2896;SDS011;1458;49.728;9.228;2022-12-29T00:39:40;0.70;;;0.70;;
2896;SDS011;1458;49.728;9.228;2022-12-29T00:42:25;0.80;;;0.80;;
2896;SDS011;1458;49.728;9.228;2022-12-29T00:45:09;1.00;;;1.00;;
2896;SDS011;1458;49.728;9.228;2022-12-29T00:47:37;0.70;;;0.70;;
2896;SDS011;1458;49.728;9.228;2022-12-29T00:50:06;0.70;;;0.70;;
2896;SDS011;1458;49.728;9.228;2022-12-29T00:52:33;0.70;;;0.70;;
2896;SDS011;1458;49.728;9.228;2022-12-29T00:55:00;0.80;;;0.80;;
2896;SDS011;1458;49.728;9.228;2022-12-29T00:57:28;0.80;;;0.80;;
2896;SDS011;1458;49.728;9.228;2022-12-29T00:59:55;0.60;;;0.60;;
2896;SDS011;1458;49.728;9.228;2022-12-29T01:02:23;0.60;;;0.60;;
2896;SDS011;1458;49.728;9.228;2022-12-29T01:04:50;0.80;;;0.80;;
2896;SDS011;1458;49.728;9.228;2022-12-29T01:07:19;0.67;;;0.67;;
2896;SDS011;1458;49.728;9.228;2022-12-29T01:09:46;0.70;;;0.70;;
2896;SDS011;1458;49.728;9.228;2022-12-29T01:12:32;0.80;;;0.80;;
2896;SDS011;1458;49.728;9.228;2022-12-29T01:15:10;0.80;;;0.80;;
2896;SDS011;1458;49.728;9.228;2022-12-29T01:17:40;0.70;;;0.70;;
2896;SDS011;1458;49.728;9.228;2022-12-29T01:20:08;0.70;;;0.70;;
2896;SDS011;1458;49.728;9.228;2022-12-29T01:22:38;0.90;;;0.90;;
2896;SDS011;1458;49.728;9.228;2022-12-29T01:25:07;0.80;;;0.80;;
2896;SDS011;1458;49.728;9.228;2022-12-29T01:27:37;0.60;;;0.60;;
2896;SDS011;1458;49.728;9.228;2022-12-29T01:30:05;0.60;;;0.60;;
2896;SDS011;1458;49.728;9.228;2022-12-29T01:32:33;0.50;;;0.50;;
2896;SDS011;1458;49.728;9.228;2022-12-29T01:35:01;0.40;;;0.40;;
2896;SDS011;1458;49.728;9.228;2022-12-29T01:37:28;0.40;;;0.40;;
2896;SDS011;1458;49.728;9.228;2022-12-29T01:39:57;0.40;;;0.40;;
2896;SDS011;1458;49.728;9.228;2022-12-29T01:42:25;0.43;;;0.43;;
2896;SDS011;1458;49.728;9.228;2022-12-29T01:44:54;0.47;;;0.47;;
2896;SDS011;1458;49.728;9.228;2022-12-29T01:47:26;0.40;;;0.40;;
2896;SDS011;1458;49.728;9.228;2022-12-29T01:50:01;0.50;;;0.50;;
2896;SDS011;1458;49.728;9.228;2022-12-29T01:52:33;0.40;;;0.40;;
2896;SDS011;1458;49.728;9.228;2022-12-29T01:55:08;0.50;;;0.50;;
2896;SDS011;1458;49.728;9.228;2022-12-29T01:57:38;0.40;;;0.40;;
2896;SDS011;1458;49.728;9.228;2022-12-29T02:00:11;0.47;;;0.47;;
2896;SDS011;1458;49.728;9.228;2022-12-29T02:02:40;0.50;;;0.50;;
2896;SDS011;1458;49.728;9.228;2022-12-29T02:05:14;0.30;;;0.30;;
2896;SDS011;1458;49.728;9.228;2022-12-29T02:07:48;0.40;;;0.40;;
2896;SDS011;1458;49.728;9.228;2022-12-29T02:10:20;0.40;;;0.40;;
2896;SDS011;1458;49.728;9.228;2022-12-29T02:12:51;0.30;;;0.30;;
2896;SDS011;1458;49.728;9.228;2022-12-29T02:15:19;0.40;;;0.40;;
2896;SDS011;1458;49.728;9.228;2022-12-29T02:18:01;0.33;;;0.33;;
2896;SDS011;1458;49.728;9.228;2022-12-29T02:27:26;0.40;;;0.40;;
2896;SDS011;1458;49.728;9.228;2022-12-29T02:30:12;0.30;;;0.30;;
2896;SDS011;1458;49.728;9.228;2022-12-29T02:33:03;0.30;;;0.30;;
2896;SDS011;1458;49.728;9.228;2022-12-29T02:35:43;0.27;;;0.27;;
2896;SDS011;1458;49.728;9.228;2022-12-29T02:38:18;0.30;;;0.30;;
2896;SDS011;1458;49.728;9.228;2022-12-29T02:40:56;0.30;;;0.30;;
2896;SDS011;1458;49.728;9.228;2022-12-29T02:43:33;0.30;;;0.30;;
2896;SDS011;1458;49.728;9.228;2022-12-29T02:46:08;0.27;;;0.27;;
2896;SDS011;1458;49.728;9.228;2022-12-29T02:48:45;0.27;;;0.27;;
2896;SDS011;1458;49.728;9.228;2022-12-29T02:51:20;0.30;;;0.30;;
2896;SDS011;1458;49.728;9.228;2022-12-29T02:53:52;0.20;;;0.20;;
2896;SDS011;1458;49.728;9.228;2022-12-29T02:56:38;0.20;;;0.20;;
2896;SDS011;1458;49.728;9.228;2022-12-29T02:59:05;0.20;;;0.20;;
2896;SDS011;1458;49.728;9.228;2022-12-29T03:01:39;0.20;;;0.20;;
2896;SDS011;1458;49.728;9.228;2022-12-29T03:04:53;0.20;;;0.20;;
2896;SDS011;1458;49.728;9.228;2022-12-29T03:07:36;0.20;;;0.20;;
2896;SDS011;1458;49.728;9.228;2022-12-29T03:10:14;0.20;;;0.20;;
2896;SDS011;1458;49.728;9.228;2022-12-29T03:12:53;0.30;;;0.30;;
2896;SDS011;1458;49.728;9.228;2022-12-29T03:15:48;0.20;;;0.20;;
2896;SDS011;1458;49.728;9.228;2022-12-29T03:18:39;0.30;;;0.30;;
2896;SDS011;1458;49.728;9.228;2022-12-29T03:21:15;0.20;;;0.20;;
2896;SDS011;1458;49.728;9.228;2022-12-29T03:23:47;0.20;;;0.20;;
2896;SDS011;1458;49.728;9.228;2022-12-29T03:26:16;0.20;;;0.20;;
2896;SDS011;1458;49.728;9.228;2022-12-29T03:28:48;0.20;;;0.20;;
2896;SDS011;1458;49.728;9.228;2022-12-29T03:31:23;0.30;;;0.30;;
2896;SDS011;1458;49.728;9.228;2022-12-29T03:33:54;0.30;;;0.30;;
2896;SDS011;1458;49.728;9.228;2022-12-29T03:36:23;0.20;;;0.20;;
2896;SDS011;1458;49.728;9.228;2022-12-29T03:38:57;0.27;;;0.27;;
2896;SDS011;1458;49.728;9.228;2022-12-29T03:41:31;0.30;;;0.30;;
2896;SDS011;1458;49.728;9.228;2022-12-29T03:44:02;0.30;;;0.30;;
2896;SDS011;1458;49.728;9.228;2022-12-29T03:46:32;0.30;;;0.30;;
2896;SDS011;1458;49.728;9.228;2022-12-29T03:49:01;0.30;;;0.30;;
2896;SDS011;1458;49.728;9.228;2022-12-29T03:51:28;0.20;;;0.20;;
2896;SDS011;1458;49.728;9.228;2022-12-29T03:53:56;0.30;;;0.30;;
2896;SDS011;1458;49.728;9.228;2022-12-29T03:56:23;0.30;;;0.30;;
2896;SDS011;1458;49.728;9.228;2022-12-29T03:58:52;0.30;;;0.30;;
2896;SDS011;1458;49.728;9.228;2022-12-29T04:01:36;0.30;;;0.30;;
2896;SDS011;1458;49.728;9.228;2022-12-29T04:04:05;0.30;;;0.30;;
2896;SDS011;1458;49.728;9.228;2022-12-29T04:06:33;0.30;;;0.30;;
2896;SDS011;1458;49.728;9.228;2022-12-29T04:09:03;0.30;;;0.30;;
2896;SDS011;1458;49.728;9.228;2022-12-29T04:11:36;0.30;;;0.30;;
2896;SDS011;1458;49.728;9.228;2022-12-29T04:14:05;0.30;;;0.30;;
2896;SDS011;1458;49.728;9.228;2022-12-29T04:16:33;0.30;;;0.30;;
2896;SDS011;1458;49.728;9.228;2022-12-29T04:19:02;0.40;;;0.40;;
2896;SDS011;1458;49.728;9.228;2022-12-29T04:21:30;0.30;;;0.30;;
2896;SDS011;1458;49.728;9.228;2022-12-29T04:23:58;0.33;;;0.33;;
2896;SDS011;1458;49.728;9.228;2022-12-29T04:26:26;0.40;;;0.40;;
2896;SDS011;1458;49.728;9.228;2022-12-29T04:29:03;0.30;;;0.30;;
2896;SDS011;1458;49.728;9.228;2022-12-29T04:31:49;0.40;;;0.40;;
2896;SDS011;1458;49.728;9.228;2022-12-29T04:34:17;0.30;;;0.30;;
2896;SDS011;1458;49.728;9.228;2022-12-29T04:36:47;0.40;;;0.40;;
2896;SDS011;1458;49.728;9.228;2022-12-29T04:39:16;0.33;;;0.33;;
2896;SDS011;1458;49.728;9.228;2022-12-29T04:41:43;0.30;;;0.30;;
2896;SDS011;1458;49.728;9.228;2022-12-29T04:44:16;0.37;;;0.37;;
2896;SDS011;1458;49.728;9.228;2022-12-29T04:47:01;0.30;;;0.30;;
2896;SDS011;1458;49.728;9.228;2022-12-29T04:49:51;0.30;;;0.30;;
2896;SDS011;1458;49.728;9.228;2022-12-29T04:52:29;0.40;;;0.40;;
2896;SDS011;1458;49.728;9.228;2022-12-29T04:54:57;0.30;;;0.30;;
2896;SDS011;1458;49.728;9.228;2022-12-29T04:57:24;0.40;;;0.40;;
2896;SDS011;1458;49.728;9.228;2022-12-29T04:59:55;0.40;;;0.40;;
2896;SDS011;1458;49.728;9.228;2022-12-29T05:02:23;0.30;;;0.30;;
2896;SDS011;1458;49.728;9.228;2022-12-29T05:04:51;0.30;;;0.30;;
2896;SDS011;1458;49.728;9.228;2022-12-29T05:07:18;0.40;;;0.40;;
2896;SDS011;1458;49.728;9.228;2022-12-29T05:09:49;0.30;;;0.30;;
2896;SDS011;1458;49.728;9.228;2022-12-29T05:12:16;0.30;;;0.30;;
2896;SDS011;1458;49.728;9.228;2022-12-29T05:14:58;0.33;;;0.33;;
2896;SDS011;1458;49.728;9.228;2022-12-29T05:17:28;0.30;;;0.30;;
2896;SDS011;1458;49.728;9.228;2022-12-29T05:19:55;0.30;;;0.30;;
2896;SDS011;1458;49.728;9.228;2022-12-29T05:22:23;0.40;;;0.40;;
2896;SDS011;1458;49.728;9.228;2022-12-29T05:24:54;0.37;;;0.37;;
2896;SDS011;1458;49.728;9.228;2022-12-29T05:27:22;0.30;;;0.30;;
2896;SDS011;1458;49.728;9.228;2022-12-29T05:30:08;0.37;;;0.37;;
2896;SDS011;1458;49.728;9.228;2022-12-29T05:32:37;0.30;;;0.30;;
2896;SDS011;1458;49.728;9.228;2022-12-29T05:35:06;0.30;;;0.30;;
2896;SDS011;1458;49.728;9.228;2022-12-29T05:37:34;0.30;;;0.30;;
2896;SDS011;1458;49.728;9.228;2022-12-29T05:40:04;0.30;;;0.30;;
2896;SDS011;1458;49.728;9.228;2022-12-29T05:42:33;0.40;;;0.40;;
2896;SDS011;1458;49.728;9.228;2022-12-29T05:45:36;0.30;;;0.30;;
2896;SDS011;1458;49.728;9.228;2022-12-29T05:48:23;0.30;;;0.30;;
2896;SDS011;1458;49.728;9.228;2022-12-29T05:51:23;0.40;;;0.40;;
2896;SDS011;1458;49.728;9.228;2022-12-29T05:53:52;0.50;;;0.50;;
2896;SDS011;1458;49.728;9.228;2022-12-29T05:56:22;0.40;;;0.40;;
2896;SDS011;1458;49.728;9.228;2022-12-29T05:58:56;0.40;;;0.40;;
2896;SDS011;1458;49.728;9.228;2022-12-29T06:01:24;0.50;;;0.50;;
2896;SDS011;1458;49.728;9.228;2022-12-29T06:03:52;0.40;;;0.40;;
2896;SDS011;1458;49.728;9.228;2022-12-29T06:06:20;0.40;;;0.40;;
2896;SDS011;1458;49.728;9.228;2022-12-29T06:08:47;0.40;;;0.40;;
2896;SDS011;1458;49.728;9.228;2022-12-29T06:11:16;0.40;;;0.40;;
2896;SDS011;1458;49.728;9.228;2022-12-29T06:13:50;0.40;;;0.40;;
2896;SDS011;1458;49.728;9.228;2022-12-29T06:16:18;0.40;;;0.40;;
2896;SDS011;1458;49.728;9.228;2022-12-29T06:18:46;0.60;;;0.60;;
2896;SDS011;1458;49.728;9.228;2022-12-29T06:21:15;0.40;;;0.40;;
2896;SDS011;1458;49.728;9.228;2022-12-29T06:23:42;0.40;;;0.40;;
2896;SDS011;1458;49.728;9.228;2022-12-29T06:26:09;0.40;;;0.40;;
2896;SDS011;1458;49.728;9.228;2022-12-29T06:28:37;0.40;;;0.40;;
2896;SDS011;1458;49.728;9.228;2022-12-29T06:31:06;0.50;;;0.50;;
2896;SDS011;1458;49.728;9.228;2022-12-29T06:33:36;0.50;;;0.50;;
2896;SDS011;1458;49.728;9.228;2022-12-29T06:36:04;0.40;;;0.40;;
2896;SDS011;1458;49.728;9.228;2022-12-29T06:38:32;0.50;;;0.50;;
2896;SDS011;1458;49.728;9.228;2022-12-29T06:41:00;0.47;;;0.47;;
2896;SDS011;1458;49.728;9.228;2022-12-29T06:43:47;0.60;;;0.60;;
2896;SDS011;1458;49.728;9.228;2022-12-29T06:46:22;0.50;;;0.50;;
2896;SDS011;1458;49.728;9.228;2022-12-29T06:48:50;0.60;;;0.60;;
2896;SDS011;1458;49.728;9.228;2022-12-29T06:51:17;0.70;;;0.70;;
2896;SDS011;1458;49.728;9.228;2022-12-29T06:53:44;0.63;;;0.63;;
2896;SDS011;1458;49.728;9.228;2022-12-29T06:56:12;0.50;;;0.50;;
2896;SDS011;1458;49.728;9.228;2022-12-29T06:58:39;0.60;;;0.60;;
2896;SDS011;1458;49.728;9.228;2022-12-29T07:01:07;0.60;;;0.60;;
2896;SDS011;1458;49.728;9.228;2022-12-29T07:03:36;0.50;;;0.50;;
2896;SDS011;1458;49.728;9.228;2022-12-29T07:06:03;0.50;;;0.50;;
2896;SDS011;1458;49.728;9.228;2022-12-29T07:08:31;0.70;;;0.70;;
2896;SDS011;1458;49.728;9.228;2022-12-29T07:10:59;0.53;;;0.53;;
2896;SDS011;1458;49.728;9.228;2022-12-29T07:13:26;0.50;;;0.50;;
2896;SDS011;1458;49.728;9.228;2022-12-29T07:15:53;0.50;;;0.50;;
2896;SDS011;1458;49.728;9.228;2022-12-29T07:18:21;0.50;;;0.50;;
2896;SDS011;1458;49.728;9.228;2022-12-29T07:20:49;0.50;;;0.50;;
2896;SDS011;1458;49.728;9.228;2022-12-29T07:23:17;0.50;;;0.50;;
2896;SDS011;1458;49.728;9.228;2022-12-29T07:25:44;0.50;;;0.50;;
2896;SDS011;1458;49.728;9.228;2022-12-29T07:28:12;0.50;;;0.50;;
2896;SDS011;1458;49.728;9.228;2022-12-29T07:30:39;0.50;;;0.50;;
2896;SDS011;1458;49.728;9.228;2022-12-29T07:33:06;0.50;;;0.50;;
2896;SDS011;1458;49.728;9.228;2022-12-29T07:35:34;0.50;;;0.50;;
2896;SDS011;1458;49.728;9.228;2022-12-29T07:38:02;0.50;;;0.50;;
2896;SDS011;1458;49.728;9.228;2022-12-29T07:40:30;0.53;;;0.53;;
2896;SDS011;1458;49.728;9.228;2022-12-29T07:42:57;0.60;;;0.60;;
2896;SDS011;1458;49.728;9.228;2022-12-29T07:45:31;0.60;;;0.60;;
2896;SDS011;1458;49.728;9.228;2022-12-29T07:48:07;0.60;;;0.60;;
2896;SDS011;1458;49.728;9.228;2022-12-29T07:50:34;0.70;;;0.70;;
2896;SDS011;1458;49.728;9.228;2022-12-29T07:53:04;0.60;;;0.60;;
2896;SDS011;1458;49.728;9.228;2022-12-29T07:55:31;0.70;;;0.70;;
2896;SDS011;1458;49.728;9.228;2022-12-29T07:57:58;0.60;;;0.60;;
2896;SDS011;1458;49.728;9.228;2022-12-29T08:00:26;0.70;;;0.70;;
2896;SDS011;1458;49.728;9.228;2022-12-29T08:02:53;0.60;;;0.60;;
2896;SDS011;1458;49.728;9.228;2022-12-29T08:05:20;0.60;;;0.60;;
2896;SDS011;1458;49.728;9.228;2022-12-29T08:07:48;0.70;;;0.70;;
2896;SDS011;1458;49.728;9.228;2022-12-29T08:10:17;0.80;;;0.80;;
2896;SDS011;1458;49.728;9.228;2022-12-29T08:12:44;0.70;;;0.70;;
2896;SDS011;1458;49.728;9.228;2022-12-29T08:15:11;1.00;;;1.00;;
2896;SDS011;1458;49.728;9.228;2022-12-29T08:17:39;0.70;;;0.70;;
2896;SDS011;1458;49.728;9.228;2022-12-29T08:20:07;0.80;;;0.80;;
2896;SDS011;1458;49.728;9.228;2022-12-29T08:22:36;1.00;;;1.00;;
2896;SDS011;1458;49.728;9.228;2022-12-29T08:25:04;0.90;;;0.90;;
2896;SDS011;1458;49.728;9.228;2022-12-29T08:27:33;0.90;;;0.90;;
2896;SDS011;1458;49.728;9.228;2022-12-29T08:30:00;0.80;;;0.80;;
2896;SDS011;1458;49.728;9.228;2022-12-29T08:32:28;1.00;;;1.00;;
2896;SDS011;1458;49.728;9.228;2022-12-29T08:34:55;1.10;;;1.10;;
2896;SDS011;1458;49.728;9.228;2022-12-29T08:37:22;1.20;;;1.20;;
2896;SDS011;1458;49.728;9.228;2022-12-29T08:39:50;1.27;;;1.27;;
2896;SDS011;1458;49.728;9.228;2022-12-29T08:42:17;1.20;;;1.20;;
2896;SDS011;1458;49.728;9.228;2022-12-29T08:44:46;1.37;;;1.37;;
2896;SDS011;1458;49.728;9.228;2022-12-29T08:47:13;1.27;;;1.27;;
2896;SDS011;1458;49.728;9.228;2022-12-29T08:49:41;1.30;;;1.30;;
2896;SDS011;1458;49.728;9.228;2022-12-29T08:52:08;1.30;;;1.30;;
2896;SDS011;1458;49.728;9.228;2022-12-29T08:54:35;1.40;;;1.40;;
2896;SDS011;1458;49.728;9.228;2022-12-29T08:57:03;1.40;;;1.40;;
2896;SDS011;1458;49.728;9.228;2022-12-29T08:59:38;1.30;;;1.30;;
2896;SDS011;1458;49.728;9.228;2022-12-29T09:02:11;1.50;;;1.50;;
2896;SDS011;1458;49.728;9.228;2022-12-29T09:04:39;1.50;;;1.50;;
2896;SDS011;1458;49.728;9.228;2022-12-29T09:07:06;1.63;;;1.63;;
2896;SDS011;1458;49.728;9.228;2022-12-29T09:09:33;1.60;;;1.60;;
2896;SDS011;1458;49.728;9.228;2022-12-29T09:12:01;1.60;;;1.60;;
2896;SDS011;1458;49.728;9.228;2022-12-29T09:14:29;1.50;;;1.50;;
2896;SDS011;1458;49.728;9.228;2022-12-29T09:16:56;1.67;;;1.67;;
2896;SDS011;1458;49.728;9.228;2022-12-29T09:19:42;1.70;;;1.70;;
2896;SDS011;1458;49.728;9.228;2022-12-29T09:22:09;1.40;;;1.40;;
2896;SDS011;1458;49.728;9.228;2022-12-29T09:24:37;1.70;;;1.70;;
2896;SDS011;1458;49.728;9.228;2022-12-29T09:27:04;1.50;;;1.50;;
2896;SDS011;1458;49.728;9.228;2022-12-29T09:29:31;1.80;;;1.80;;
2896;SDS011;1458;49.728;9.228;2022-12-29T09:31:59;1.40;;;1.40;;
2896;SDS011;1458;49.728;9.228;2022-12-29T09:34:26;1.43;;;1.43;;
2896;SDS011;1458;49.728;9.228;2022-12-29T09:36:55;1.30;;;1.30;;
2896;SDS011;1458;49.728;9.228;2022-12-29T09:39:22;1.20;;;1.20;;
2896;SDS011;1458;49.728;9.228;2022-12-29T09:41:52;1.50;;;1.50;;
2896;SDS011;1458;49.728;9.228;2022-12-29T09:44:31;1.40;;;1.40;;
2896;SDS011;1458;49.728;9.228;2022-12-29T09:47:16;1.30;;;1.30;;
2896;SDS011;1458;49.728;9.228;2022-12-29T09:49:46;1.20;;;1.20;;
2896;SDS011;1458;49.728;9.228;2022-12-29T09:52:21;1.37;;;1.37;;
2896;SDS011;1458;49.728;9.228;2022-12-29T09:54:55;1.50;;;1.50;;
2896;SDS011;1458;49.728;9.228;2022-12-29T09:57:27;1.40;;;1.40;;
2896;SDS011;1458;49.728;9.228;2022-12-29T10:00:02;1.70;;;1.70;;
2896;SDS011;1458;49.728;9.228;2022-12-29T10:02:38;1.40;;;1.40;;
2896;SDS011;1458;49.728;9.228;2022-12-29T10:05:15;1.60;;;1.60;;
2896;SDS011;1458;49.728;9.228;2022-12-29T10:08:03;1.47;;;1.47;;
2896;SDS011;1458;49.728;9.228;2022-12-29T10:10:53;1.60;;;1.60;;
2896;SDS011;1458;49.728;9.228;2022-12-29T10:13:26;1.40;;;1.40;;
2896;SDS011;1458;49.728;9.228;2022-12-29T10:16:04;1.60;;;1.60;;
2896;SDS011;1458;49.728;9.228;2022-12-29T10:18:43;1.30;;;1.30;;
2896;SDS011;1458;49.728;9.228;2022-12-29T10:21:59;1.07;;;1.07;;
2896;SDS011;1458;49.728;9.228;2022-12-29T10:24:43;1.00;;;1.00;;
2896;SDS011;1458;49.728;9.228;2022-12-29T10:27:16;1.10;;;1.10;;
2896;SDS011;1458;49.728;9.228;2022-12-29T10:29:45;0.90;;;0.90;;
2896;SDS011;1458;49.728;9.228;2022-12-29T10:32:21;0.90;;;0.90;;
2896;SDS011;1458;49.728;9.228;2022-12-29T10:34:57;0.93;;;0.93;;
2896;SDS011;1458;49.728;9.228;2022-12-29T10:37:32;1.00;;;1.00;;
2896;SDS011;1458;49.728;9.228;2022-12-29T10:40:16;0.83;;;0.83;;
2896;SDS011;1458;49.728;9.228;2022-12-29T10:42:52;1.00;;;1.00;;
2896;SDS011;1458;49.728;9.228;2022-12-29T10:45:21;0.80;;;0.80;;
2896;SDS011;1458;49.728;9.228;2022-12-29T10:47:54;0.90;;;0.90;;
2896;SDS011;1458;49.728;9.228;2022-12-29T10:50:26;1.00;;;1.00;;
2896;SDS011;1458;49.728;9.228;2022-12-29T10:52:55;1.20;;;1.20;;
2896;SDS011;1458;49.728;9.228;2022-12-29T10:55:30;0.90;;;0.90;;
2896;SDS011;1458;49.728;9.228;2022-12-29T10:58:03;1.00;;;1.00;;
2896;SDS011;1458;49.728;9.228;2022-12-29T11:00:33;1.33;;;1.33;;
2896;SDS011;1458;49.728;9.228;2022-12-29T11:06:09;1.00;;;1.00;;
2896;SDS011;1458;49.728;9.228;2022-12-29T11:08:45;1.10;;;1.10;;
2896;SDS011;1458;49.728;9.228;2022-12-29T11:11:25;1.17;;;1.17;;
2896;SDS011;1458;49.728;9.228;2022-12-29T11:13:58;1.20;;;1.20;;
2896;SDS011;1458;49.728;9.228;2022-12-29T11:16:30;1.10;;;1.10;;
2896;SDS011;1458;49.728;9.228;2022-12-29T11:18:59;1.00;;;1.00;;
2896;SDS011;1458;49.728;9.228;2022-12-29T11:21:30;1.40;;;1.40;;
2896;SDS011;1458;49.728;9.228;2022-12-29T11:24:08;1.30;;;1.30;;
2896;SDS011;1458;49.728;9.228;2022-12-29T11:26:50;1.20;;;1.20;;
2896;SDS011;1458;49.728;9.228;2022-12-29T11:29:23;1.60;;;1.60;;
2896;SDS011;1458;49.728;9.228;2022-12-29T11:31:57;1.20;;;1.20;;
2896;SDS011;1458;49.728;9.228;2022-12-29T11:34:26;1.37;;;1.37;;
2896;SDS011;1458;49.728;9.228;2022-12-29T11:37:02;1.40;;;1.40;;
2896;SDS011;1458;49.728;9.228;2022-12-29T11:39:33;1.20;;;1.20;;
2896;SDS011;1458;49.728;9.228;2022-12-29T11:42:11;1.20;;;1.20;;
2896;SDS011;1458;49.728;9.228;2022-12-29T11:44:43;1.20;;;1.20;;
2896;SDS011;1458;49.728;9.228;2022-12-29T11:47:20;1.10;;;1.10;;
2896;SDS011;1458;49.728;9.228;2022-12-29T11:49:54;1.07;;;1.07;;
2896;SDS011;1458;49.728;9.228;2022-12-29T11:52:25;1.10;;;1.10;;
2896;SDS011;1458;49.728;9.228;2022-12-29T11:54:56;1.23;;;1.23;;
2896;SDS011;1458;49.728;9.228;2022-12-29T11:57:26;1.00;;;1.00;;
2896;SDS011;1458;49.728;9.228;2022-12-29T11:59:55;1.27;;;1.27;;
2896;SDS011;1458;49.728;9.228;2022-12-29T12:05:20;1.03;;;1.03;;
2896;SDS011;1458;49.728;9.228;2022-12-29T12:07:54;0.90;;;0.90;;
2896;SDS011;1458;49.728;9.228;2022-12-29T12:10:28;1.00;;;1.00;;
2896;SDS011;1458;49.728;9.228;2022-12-29T12:13:08;1.17;;;1.17;;
2896;SDS011;1458;49.728;9.228;2022-12-29T12:15:49;0.90;;;0.90;;
2896;SDS011;1458;49.728;9.228;2022-12-29T12:18:26;0.90;;;0.90;;
2896;SDS011;1458;49.728;9.228;2022-12-29T12:21:06;1.30;;;1.30;;
2896;SDS011;1458;49.728;9.228;2022-12-29T12:23:44;0.97;;;0.97;;
2896;SDS011;1458;49.728;9.228;2022-12-29T12:26:28;1.00;;;1.00;;
2896;SDS011;1458;49.728;9.228;2022-12-29T12:29:04;0.80;;;0.80;;
2896;SDS011;1458;49.728;9.228;2022-12-29T12:31:41;1.10;;;1.10;;
2896;SDS011;1458;49.728;9.228;2022-12-29T12:34:16;0.80;;;0.80;;
2896;SDS011;1458;49.728;9.228;2022-12-29T12:36:55;0.90;;;0.90;;
2896;SDS011;1458;49.728;9.228;2022-12-29T12:39:56;0.93;;;0.93;;
2896;SDS011;1458;49.728;9.228;2022-12-29T12:42:47;0.80;;;0.80;;
2896;SDS011;1458;49.728;9.228;2022-12-29T12:45:30;0.90;;;0.90;;
2896;SDS011;1458;49.728;9.228;2022-12-29T12:48:16;0.80;;;0.80;;
2896;SDS011;1458;49.728;9.228;2022-12-29T12:51:16;0.80;;;0.80;;
2896;SDS011;1458;49.728;9.228;2022-12-29T12:53:55;0.73;;;0.73;;
2896;SDS011;1458;49.728;9.228;2022-12-29T12:56:44;0.70;;;0.70;;
2896;SDS011;1458;49.728;9.228;2022-12-29T12:59:32;0.60;;;0.60;;
2896;SDS011;1458;49.728;9.228;2022-12-29T13:02:17;0.73;;;0.73;;
2896;SDS011;1458;49.728;9.228;2022-12-29T13:05:13;0.60;;;0.60;;
2896;SDS011;1458;49.728;9.228;2022-12-29T13:08:11;0.60;;;0.60;;
2896;SDS011;1458;49.728;9.228;2022-12-29T13:10:57;0.60;;;0.60;;
2896;SDS011;1458;49.728;9.228;2022-12-29T13:13:40;0.53;;;0.53;;
2896;SDS011;1458;49.728;9.228;2022-12-29T13:16:35;0.50;;;0.50;;
2896;SDS011;1458;49.728;9.228;2022-12-29T13:19:13;0.50;;;0.50;;
2896;SDS011;1458;49.728;9.228;2022-12-29T13:21:49;0.50;;;0.50;;
2896;SDS011;1458;49.728;9.228;2022-12-29T13:24:29;0.60;;;0.60;;
2896;SDS011;1458;49.728;9.228;2022-12-29T13:27:09;0.60;;;0.60;;
2896;SDS011;1458;49.728;9.228;2022-12-29T13:29:46;0.60;;;0.60;;
2896;SDS011;1458;49.728;9.228;2022-12-29T13:32:25;0.50;;;0.50;;
2896;SDS011;1458;49.728;9.228;2022-12-29T13:35:14;0.60;;;0.60;;
2896;SDS011;1458;49.728;9.228;2022-12-29T13:38:03;0.60;;;0.60;;
2896;SDS011;1458;49.728;9.228;2022-12-29T13:40:38;0.60;;;0.60;;
2896;SDS011;1458;49.728;9.228;2022-12-29T13:43:12;0.80;;;0.80;;
2896;SDS011;1458;49.728;9.228;2022-12-29T13:45:42;0.70;;;0.70;;
2896;SDS011;1458;49.728;9.228;2022-12-29T13:48:13;0.70;;;0.70;;
2896;SDS011;1458;49.728;9.228;2022-12-29T13:50:54;0.93;;;0.93;;
2896;SDS011;1458;49.728;9.228;2022-12-29T13:53:26;0.70;;;0.70;;
2896;SDS011;1458;49.728;9.228;2022-12-29T13:56:03;0.73;;;0.73;;
2896;SDS011;1458;49.728;9.228;2022-12-29T13:58:39;0.80;;;0.80;;
2896;SDS011;1458;49.728;9.228;2022-12-29T14:01:15;0.70;;;0.70;;
2896;SDS011;1458;49.728;9.228;2022-12-29T14:03:51;0.80;;;0.80;;
2896;SDS011;1458;49.728;9.228;2022-12-29T14:06:23;1.10;;;1.10;;
2896;SDS011;1458;49.728;9.228;2022-12-29T14:08:52;0.87;;;0.87;;
2896;SDS011;1458;49.728;9.228;2022-12-29T14:11:23;1.00;;;1.00;;
2896;SDS011;1458;49.728;9.228;2022-12-29T14:13:57;0.80;;;0.80;;
2896;SDS011;1458;49.728;9.228;2022-12-29T14:16:29;0.80;;;0.80;;
2896;SDS011;1458;49.728;9.228;2022-12-29T14:19:06;0.83;;;0.83;;
2896;SDS011;1458;49.728;9.228;2022-12-29T14:21:41;0.80;;;0.80;;
2896;SDS011;1458;49.728;9.228;2022-12-29T14:24:27;0.90;;;0.90;;
2896;SDS011;1458;49.728;9.228;2022-12-29T14:33:20;0.80;;;0.80;;
2896;SDS011;1458;49.728;9.228;2022-12-29T14:35:51;0.70;;;0.70;;
2896;SDS011;1458;49.728;9.228;2022-12-29T14:41:17;0.67;;;0.67;;
2896;SDS011;1458;49.728;9.228;2022-12-29T14:43:56;0.70;;;0.70;;
2896;SDS011;1458;49.728;9.228;2022-12-29T14:46:41;0.60;;;0.60;;
2896;SDS011;1458;49.728;9.228;2022-12-29T14:49:15;0.60;;;0.60;;
2896;SDS011;1458;49.728;9.228;2022-12-29T14:51:46;0.60;;;0.60;;
2896;SDS011;1458;49.728;9.228;2022-12-29T15:00:15;0.40;;;0.40;;
2896;SDS011;1458;49.728;9.228;2022-12-29T15:02:49;0.57;;;0.57;;
2896;SDS011;1458;49.728;9.228;2022-12-29T15:05:32;0.50;;;0.50;;
2896;SDS011;1458;49.728;9.228;2022-12-29T15:08:03;0.40;;;0.40;;
2896;SDS011;1458;49.728;9.228;2022-12-29T15:10:36;0.40;;;0.40;;
2896;SDS011;1458;49.728;9.228;2022-12-29T15:13:13;0.30;;;0.30;;
2896;SDS011;1458;49.728;9.228;2022-12-29T15:15:44;0.40;;;0.40;;
2896;SDS011;1458;49.728;9.228;2022-12-29T15:18:15;0.40;;;0.40;;
2896;SDS011;1458;49.728;9.228;2022-12-29T15:20:53;0.33;;;0.33;;
2896;SDS011;1458;49.728;9.228;2022-12-29T15:23:24;0.40;;;0.40;;
2896;SDS011;1458;49.728;9.228;2022-12-29T15:25:56;0.30;;;0.30;;
2896;SDS011;1458;49.728;9.228;2022-12-29T15:28:26;0.30;;;0.30;;
2896;SDS011;1458;49.728;9.228;2022-12-29T15:31:03;0.30;;;0.30;;
2896;SDS011;1458;49.728;9.228;2022-12-29T15:33:37;0.30;;;0.30;;
2896;SDS011;1458;49.728;9.228;2022-12-29T15:36:09;0.30;;;0.30;;
2896;SDS011;1458;49.728;9.228;2022-12-29T15:38:39;0.30;;;0.30;;
2896;SDS011;1458;49.728;9.228;2022-12-29T15:41:12;0.40;;;0.40;;
2896;SDS011;1458;49.728;9.228;2022-12-29T15:43:53;0.30;;;0.30;;
2896;SDS011;1458;49.728;9.228;2022-12-29T15:46:41;0.30;;;0.30;;
2896;SDS011;1458;49.728;9.228;2022-12-29T15:49:08;0.30;;;0.30;;
2896;SDS011;1458;49.728;9.228;2022-12-29T15:51:40;0.30;;;0.30;;
2896;SDS011;1458;49.728;9.228;2022-12-29T15:54:12;0.30;;;0.30;;
2896;SDS011;1458;49.728;9.228;2022-12-29T15:56:45;0.30;;;0.30;;
2896;SDS011;1458;49.728;9.228;2022-12-29T15:59:22;0.30;;;0.30;;
2896;SDS011;1458;49.728;9.228;2022-12-29T16:01:52;0.30;;;0.30;;
2896;SDS011;1458;49.728;9.228;2022-12-29T16:04:20;0.30;;;0.30;;
2896;SDS011;1458;49.728;9.228;2022-12-29T16:06:54;0.30;;;0.30;;
2896;SDS011;1458;49.728;9.228;2022-12-29T16:09:29;0.23;;;0.23;;
2896;SDS011;1458;49.728;9.228;2022-12-29T16:12:01;0.30;;;0.30;;
2896;SDS011;1458;49.728;9.228;2022-12-29T16:14:32;0.30;;;0.30;;
2896;SDS011;1458;49.728;9.228;2022-12-29T16:17:04;0.20;;;0.20;;
2896;SDS011;1458;49.728;9.228;2022-12-29T16:19:33;0.37;;;0.37;;
2896;SDS011;1458;49.728;9.228;2022-12-29T16:22:04;0.20;;;0.20;;